sensor_id;sensor_type;location;lat;lon;timestamp;P1;durP1;ratioP1;P2;durP2;ratioP2
15848;SDS011;8024;48.708;9.394;2022-10-26T00:00:21;4.33;;;2.47;;
15848;SDS011;8024;48.708;9.394;2022-10-26T00:02:49;3.67;;;2.87;;
15848;SDS011;8024;48.708;9.394;2022-10-26T00:05:17;4.27;;;2.67;;
15848;SDS011;8024;48.708;9.394;2022-10-26T00:07:44;6.10;;;3.67;;
15848;SDS011;8024;48.708;9.394;2022-10-26T00:10:12;4.00;;;2.53;;
15848;SDS011;8024;48.708;9.394;2022-10-26T00:12:39;3.13;;;2.20;;
15848;SDS011;8024;48.708;9.394;2022-10-26T00:15:07;3.60;;;2.33;;
15848;SDS011;8024;48.708;9.394;2022-10-26T00:17:34;4.67;;;2.53;;
15848;SDS011;8024;48.708;9.394;2022-10-26T00:20:02;4.63;;;2.53;;
15848;SDS011;8024;48.708;9.394;2022-10-26T00:22:30;7.47;;;3.10;;
15848;SDS011;8024;48.708;9.394;2022-10-26T00:24:57;4.97;;;3.13;;
15848;SDS011;8024;48.708;9.394;2022-10-26T00:27:25;5.03;;;2.63;;
15848;SDS011;8024;48.708;9.394;2022-10-26T00:29:52;4.70;;;2.90;;
15848;SDS011;8024;48.708;9.394;2022-10-26T00:32:19;6.30;;;2.50;;
15848;SDS011;8024;48.708;9.394;2022-10-26T00:34:46;3.30;;;2.53;;
15848;SDS011;8024;48.708;9.394;2022-10-26T00:37:13;7.07;;;2.83;;
15848;SDS011;8024;48.708;9.394;2022-10-26T00:39:42;5.70;;;3.30;;
15848;SDS011;8024;48.708;9.394;2022-10-26T00:42:10;5.10;;;2.47;;
15848;SDS011;8024;48.708;9.394;2022-10-26T00:44:56;6.03;;;2.73;;
15848;SDS011;8024;48.708;9.394;2022-10-26T00:47:32;2.67;;;2.47;;
15848;SDS011;8024;48.708;9.394;2022-10-26T00:50:05;3.30;;;3.00;;
15848;SDS011;8024;48.708;9.394;2022-10-26T00:52:34;5.40;;;2.93;;
15848;SDS011;8024;48.708;9.394;2022-10-26T00:55:04;2.30;;;2.20;;
15848;SDS011;8024;48.708;9.394;2022-10-26T00:57:33;5.57;;;2.53;;
15848;SDS011;8024;48.708;9.394;2022-10-26T01:00:03;2.67;;;2.40;;
15848;SDS011;8024;48.708;9.394;2022-10-26T01:02:31;4.40;;;2.77;;
15848;SDS011;8024;48.708;9.394;2022-10-26T01:04:59;7.23;;;3.60;;
15848;SDS011;8024;48.708;9.394;2022-10-26T01:07:28;3.83;;;3.00;;
15848;SDS011;8024;48.708;9.394;2022-10-26T01:09:55;3.83;;;3.13;;
15848;SDS011;8024;48.708;9.394;2022-10-26T01:12:24;5.83;;;3.60;;
15848;SDS011;8024;48.708;9.394;2022-10-26T01:14:51;8.87;;;3.30;;
15848;SDS011;8024;48.708;9.394;2022-10-26T01:17:22;6.70;;;3.17;;
15848;SDS011;8024;48.708;9.394;2022-10-26T01:22:59;4.27;;;2.97;;
15848;SDS011;8024;48.708;9.394;2022-10-26T01:25:38;4.50;;;2.80;;
15848;SDS011;8024;48.708;9.394;2022-10-26T01:28:23;5.47;;;3.10;;
15848;SDS011;8024;48.708;9.394;2022-10-26T01:31:02;3.80;;;3.40;;
15848;SDS011;8024;48.708;9.394;2022-10-26T01:33:36;5.40;;;3.13;;
15848;SDS011;8024;48.708;9.394;2022-10-26T01:36:08;5.90;;;2.87;;
15848;SDS011;8024;48.708;9.394;2022-10-26T01:38:46;5.07;;;3.00;;
15848;SDS011;8024;48.708;9.394;2022-10-26T01:41:22;4.63;;;2.37;;
15848;SDS011;8024;48.708;9.394;2022-10-26T01:43:54;3.90;;;2.63;;
15848;SDS011;8024;48.708;9.394;2022-10-26T01:46:25;3.33;;;3.00;;
15848;SDS011;8024;48.708;9.394;2022-10-26T01:48:56;7.77;;;2.70;;
15848;SDS011;8024;48.708;9.394;2022-10-26T01:51:27;3.60;;;2.60;;
15848;SDS011;8024;48.708;9.394;2022-10-26T01:53:56;3.63;;;2.30;;
15848;SDS011;8024;48.708;9.394;2022-10-26T01:56:24;3.93;;;2.40;;
15848;SDS011;8024;48.708;9.394;2022-10-26T01:59:02;4.27;;;2.70;;
15848;SDS011;8024;48.708;9.394;2022-10-26T02:01:59;6.20;;;3.30;;
15848;SDS011;8024;48.708;9.394;2022-10-26T02:04:41;4.70;;;2.73;;
15848;SDS011;8024;48.708;9.394;2022-10-26T02:07:20;2.20;;;2.00;;
15848;SDS011;8024;48.708;9.394;2022-10-26T02:10:00;5.57;;;2.87;;
15848;SDS011;8024;48.708;9.394;2022-10-26T02:12:36;7.87;;;2.77;;
15848;SDS011;8024;48.708;9.394;2022-10-26T02:15:07;4.00;;;2.73;;
15848;SDS011;8024;48.708;9.394;2022-10-26T02:17:43;7.23;;;2.50;;
15848;SDS011;8024;48.708;9.394;2022-10-26T02:20:15;4.57;;;2.40;;
15848;SDS011;8024;48.708;9.394;2022-10-26T02:22:46;4.03;;;3.17;;
15848;SDS011;8024;48.708;9.394;2022-10-26T02:25:16;5.23;;;2.37;;
15848;SDS011;8024;48.708;9.394;2022-10-26T02:27:46;4.03;;;3.00;;
15848;SDS011;8024;48.708;9.394;2022-10-26T02:30:16;5.67;;;3.20;;
15848;SDS011;8024;48.708;9.394;2022-10-26T02:32:46;6.17;;;3.07;;
15848;SDS011;8024;48.708;9.394;2022-10-26T02:35:16;4.53;;;3.00;;
15848;SDS011;8024;48.708;9.394;2022-10-26T02:37:47;5.17;;;2.73;;
15848;SDS011;8024;48.708;9.394;2022-10-26T02:40:17;4.80;;;2.93;;
15848;SDS011;8024;48.708;9.394;2022-10-26T02:42:46;8.07;;;3.13;;
15848;SDS011;8024;48.708;9.394;2022-10-26T02:45:15;3.50;;;3.07;;
15848;SDS011;8024;48.708;9.394;2022-10-26T02:47:47;3.83;;;2.77;;
15848;SDS011;8024;48.708;9.394;2022-10-26T02:50:15;4.77;;;3.00;;
15848;SDS011;8024;48.708;9.394;2022-10-26T02:52:44;5.03;;;2.97;;
15848;SDS011;8024;48.708;9.394;2022-10-26T02:55:17;3.63;;;3.27;;
15848;SDS011;8024;48.708;9.394;2022-10-26T02:57:49;3.47;;;2.73;;
15848;SDS011;8024;48.708;9.394;2022-10-26T03:00:18;4.10;;;3.07;;
15848;SDS011;8024;48.708;9.394;2022-10-26T03:02:51;2.63;;;2.40;;
15848;SDS011;8024;48.708;9.394;2022-10-26T03:05:22;3.03;;;2.77;;
15848;SDS011;8024;48.708;9.394;2022-10-26T03:07:51;4.50;;;2.70;;
15848;SDS011;8024;48.708;9.394;2022-10-26T03:10:19;4.43;;;2.90;;
15848;SDS011;8024;48.708;9.394;2022-10-26T03:12:47;8.23;;;2.63;;
15848;SDS011;8024;48.708;9.394;2022-10-26T03:15:14;5.13;;;3.37;;
15848;SDS011;8024;48.708;9.394;2022-10-26T03:17:41;4.00;;;2.60;;
15848;SDS011;8024;48.708;9.394;2022-10-26T03:20:10;4.40;;;2.77;;
15848;SDS011;8024;48.708;9.394;2022-10-26T03:22:37;5.13;;;3.00;;
15848;SDS011;8024;48.708;9.394;2022-10-26T03:25:05;4.80;;;2.43;;
15848;SDS011;8024;48.708;9.394;2022-10-26T03:27:33;4.43;;;2.30;;
15848;SDS011;8024;48.708;9.394;2022-10-26T03:30:01;5.40;;;2.40;;
15848;SDS011;8024;48.708;9.394;2022-10-26T03:32:28;5.00;;;3.30;;
15848;SDS011;8024;48.708;9.394;2022-10-26T03:34:55;5.17;;;3.07;;
15848;SDS011;8024;48.708;9.394;2022-10-26T03:37:24;4.43;;;2.57;;
15848;SDS011;8024;48.708;9.394;2022-10-26T03:39:51;3.13;;;2.70;;
15848;SDS011;8024;48.708;9.394;2022-10-26T03:42:18;2.33;;;1.97;;
15848;SDS011;8024;48.708;9.394;2022-10-26T03:44:45;3.67;;;2.90;;
15848;SDS011;8024;48.708;9.394;2022-10-26T03:47:13;3.97;;;2.53;;
15848;SDS011;8024;48.708;9.394;2022-10-26T03:49:40;8.07;;;3.27;;
15848;SDS011;8024;48.708;9.394;2022-10-26T03:52:07;3.73;;;2.50;;
15848;SDS011;8024;48.708;9.394;2022-10-26T03:54:35;5.33;;;3.20;;
15848;SDS011;8024;48.708;9.394;2022-10-26T03:57:02;7.60;;;3.00;;
15848;SDS011;8024;48.708;9.394;2022-10-26T03:59:30;4.23;;;2.60;;
15848;SDS011;8024;48.708;9.394;2022-10-26T04:01:57;5.27;;;2.40;;
15848;SDS011;8024;48.708;9.394;2022-10-26T04:04:24;5.30;;;2.83;;
15848;SDS011;8024;48.708;9.394;2022-10-26T04:06:51;8.50;;;4.03;;
15848;SDS011;8024;48.708;9.394;2022-10-26T04:09:18;9.83;;;4.13;;
15848;SDS011;8024;48.708;9.394;2022-10-26T04:11:46;5.73;;;3.47;;
15848;SDS011;8024;48.708;9.394;2022-10-26T04:14:14;3.57;;;3.10;;
15848;SDS011;8024;48.708;9.394;2022-10-26T04:16:41;5.73;;;3.33;;
15848;SDS011;8024;48.708;9.394;2022-10-26T04:19:08;4.33;;;3.07;;
15848;SDS011;8024;48.708;9.394;2022-10-26T04:21:35;4.63;;;3.33;;
15848;SDS011;8024;48.708;9.394;2022-10-26T04:24:02;6.20;;;2.70;;
15848;SDS011;8024;48.708;9.394;2022-10-26T04:26:30;5.97;;;2.53;;
15848;SDS011;8024;48.708;9.394;2022-10-26T04:28:58;5.23;;;2.60;;
15848;SDS011;8024;48.708;9.394;2022-10-26T04:31:28;7.60;;;3.23;;
15848;SDS011;8024;48.708;9.394;2022-10-26T04:33:56;3.43;;;3.00;;
15848;SDS011;8024;48.708;9.394;2022-10-26T04:36:23;4.77;;;3.37;;
15848;SDS011;8024;48.708;9.394;2022-10-26T04:38:50;4.83;;;3.47;;
15848;SDS011;8024;48.708;9.394;2022-10-26T04:41:17;4.33;;;3.20;;
15848;SDS011;8024;48.708;9.394;2022-10-26T04:43:44;4.30;;;3.00;;
15848;SDS011;8024;48.708;9.394;2022-10-26T04:46:12;5.33;;;3.20;;
15848;SDS011;8024;48.708;9.394;2022-10-26T04:48:40;7.73;;;4.17;;
15848;SDS011;8024;48.708;9.394;2022-10-26T04:51:07;5.13;;;3.63;;
15848;SDS011;8024;48.708;9.394;2022-10-26T04:53:34;5.17;;;4.53;;
15848;SDS011;8024;48.708;9.394;2022-10-26T04:56:01;7.60;;;3.83;;
15848;SDS011;8024;48.708;9.394;2022-10-26T04:58:28;5.97;;;3.13;;
15848;SDS011;8024;48.708;9.394;2022-10-26T05:00:56;5.60;;;3.20;;
15848;SDS011;8024;48.708;9.394;2022-10-26T05:03:24;4.47;;;3.37;;
15848;SDS011;8024;48.708;9.394;2022-10-26T05:05:51;2.97;;;2.67;;
15848;SDS011;8024;48.708;9.394;2022-10-26T05:08:18;4.83;;;2.83;;
15848;SDS011;8024;48.708;9.394;2022-10-26T05:10:47;5.43;;;3.37;;
15848;SDS011;8024;48.708;9.394;2022-10-26T05:13:14;5.47;;;2.97;;
15848;SDS011;8024;48.708;9.394;2022-10-26T05:15:42;3.13;;;2.63;;
15848;SDS011;8024;48.708;9.394;2022-10-26T05:18:09;5.17;;;2.93;;
15848;SDS011;8024;48.708;9.394;2022-10-26T05:20:37;6.20;;;3.63;;
15848;SDS011;8024;48.708;9.394;2022-10-26T05:23:05;5.53;;;3.63;;
15848;SDS011;8024;48.708;9.394;2022-10-26T05:25:35;4.50;;;3.30;;
15848;SDS011;8024;48.708;9.394;2022-10-26T05:28:04;4.50;;;2.80;;
15848;SDS011;8024;48.708;9.394;2022-10-26T05:30:33;5.50;;;3.17;;
15848;SDS011;8024;48.708;9.394;2022-10-26T05:33:00;4.43;;;2.83;;
15848;SDS011;8024;48.708;9.394;2022-10-26T05:35:28;3.90;;;3.60;;
15848;SDS011;8024;48.708;9.394;2022-10-26T05:37:57;3.30;;;3.00;;
15848;SDS011;8024;48.708;9.394;2022-10-26T05:40:26;5.93;;;3.27;;
15848;SDS011;8024;48.708;9.394;2022-10-26T05:42:58;4.90;;;2.63;;
15848;SDS011;8024;48.708;9.394;2022-10-26T05:45:25;3.33;;;3.03;;
15848;SDS011;8024;48.708;9.394;2022-10-26T05:47:53;5.53;;;3.07;;
15848;SDS011;8024;48.708;9.394;2022-10-26T05:50:20;3.27;;;2.97;;
15848;SDS011;8024;48.708;9.394;2022-10-26T05:52:47;4.33;;;2.90;;
15848;SDS011;8024;48.708;9.394;2022-10-26T05:55:16;3.93;;;3.53;;
15848;SDS011;8024;48.708;9.394;2022-10-26T05:57:44;3.90;;;3.60;;
15848;SDS011;8024;48.708;9.394;2022-10-26T06:00:14;3.40;;;2.93;;
15848;SDS011;8024;48.708;9.394;2022-10-26T06:02:46;4.40;;;2.93;;
15848;SDS011;8024;48.708;9.394;2022-10-26T06:05:27;3.83;;;3.10;;
15848;SDS011;8024;48.708;9.394;2022-10-26T06:07:56;3.83;;;3.43;;
15848;SDS011;8024;48.708;9.394;2022-10-26T06:10:26;4.20;;;3.33;;
15848;SDS011;8024;48.708;9.394;2022-10-26T06:12:53;4.57;;;3.63;;
15848;SDS011;8024;48.708;9.394;2022-10-26T06:15:21;3.77;;;3.33;;
15848;SDS011;8024;48.708;9.394;2022-10-26T06:17:51;3.43;;;3.13;;
15848;SDS011;8024;48.708;9.394;2022-10-26T06:20:27;3.40;;;3.10;;
15848;SDS011;8024;48.708;9.394;2022-10-26T06:23:13;4.40;;;3.00;;
15848;SDS011;8024;48.708;9.394;2022-10-26T06:25:59;4.30;;;3.90;;
15848;SDS011;8024;48.708;9.394;2022-10-26T06:28:32;3.77;;;3.47;;
15848;SDS011;8024;48.708;9.394;2022-10-26T06:31:08;6.30;;;3.43;;
15848;SDS011;8024;48.708;9.394;2022-10-26T06:33:38;4.73;;;3.33;;
15848;SDS011;8024;48.708;9.394;2022-10-26T06:36:09;8.43;;;4.37;;
15848;SDS011;8024;48.708;9.394;2022-10-26T06:38:43;4.80;;;3.47;;
15848;SDS011;8024;48.708;9.394;2022-10-26T06:41:13;4.20;;;3.80;;
15848;SDS011;8024;48.708;9.394;2022-10-26T06:43:43;4.67;;;4.23;;
15848;SDS011;8024;48.708;9.394;2022-10-26T06:46:13;4.53;;;3.70;;
15848;SDS011;8024;48.708;9.394;2022-10-26T06:48:49;4.73;;;3.67;;
15848;SDS011;8024;48.708;9.394;2022-10-26T06:51:21;6.00;;;4.27;;
15848;SDS011;8024;48.708;9.394;2022-10-26T06:53:51;7.60;;;4.60;;
15848;SDS011;8024;48.708;9.394;2022-10-26T06:56:26;6.13;;;5.10;;
15848;SDS011;8024;48.708;9.394;2022-10-26T06:58:54;6.77;;;4.37;;
15848;SDS011;8024;48.708;9.394;2022-10-26T07:01:25;5.40;;;4.90;;
15848;SDS011;8024;48.708;9.394;2022-10-26T07:03:52;7.13;;;4.67;;
15848;SDS011;8024;48.708;9.394;2022-10-26T07:06:19;7.07;;;5.10;;
15848;SDS011;8024;48.708;9.394;2022-10-26T07:08:46;7.57;;;4.90;;
15848;SDS011;8024;48.708;9.394;2022-10-26T07:11:14;9.70;;;4.70;;
15848;SDS011;8024;48.708;9.394;2022-10-26T07:13:42;5.40;;;4.80;;
15848;SDS011;8024;48.708;9.394;2022-10-26T07:16:09;7.67;;;5.33;;
15848;SDS011;8024;48.708;9.394;2022-10-26T07:18:36;5.40;;;4.90;;
15848;SDS011;8024;48.708;9.394;2022-10-26T07:21:04;6.53;;;4.93;;
15848;SDS011;8024;48.708;9.394;2022-10-26T07:23:31;11.07;;;6.70;;
15848;SDS011;8024;48.708;9.394;2022-10-26T07:25:58;7.43;;;6.10;;
15848;SDS011;8024;48.708;9.394;2022-10-26T07:28:25;9.47;;;6.17;;
15848;SDS011;8024;48.708;9.394;2022-10-26T07:30:54;5.40;;;4.07;;
15848;SDS011;8024;48.708;9.394;2022-10-26T07:33:24;7.20;;;4.70;;
15848;SDS011;8024;48.708;9.394;2022-10-26T07:35:51;5.50;;;3.60;;
15848;SDS011;8024;48.708;9.394;2022-10-26T07:38:19;7.37;;;3.67;;
15848;SDS011;8024;48.708;9.394;2022-10-26T07:40:46;7.73;;;5.20;;
15848;SDS011;8024;48.708;9.394;2022-10-26T07:43:14;7.47;;;6.00;;
15848;SDS011;8024;48.708;9.394;2022-10-26T07:45:41;8.07;;;6.30;;
15848;SDS011;8024;48.708;9.394;2022-10-26T07:48:10;6.40;;;5.53;;
15848;SDS011;8024;48.708;9.394;2022-10-26T07:50:37;8.53;;;6.50;;
15848;SDS011;8024;48.708;9.394;2022-10-26T07:53:04;6.67;;;4.93;;
15848;SDS011;8024;48.708;9.394;2022-10-26T07:55:31;6.57;;;4.20;;
15848;SDS011;8024;48.708;9.394;2022-10-26T07:57:58;5.93;;;4.17;;
15848;SDS011;8024;48.708;9.394;2022-10-26T08:00:25;5.97;;;4.43;;
15848;SDS011;8024;48.708;9.394;2022-10-26T08:02:53;7.63;;;4.97;;
15848;SDS011;8024;48.708;9.394;2022-10-26T08:05:22;6.83;;;5.57;;
15848;SDS011;8024;48.708;9.394;2022-10-26T08:07:49;10.40;;;5.27;;
15848;SDS011;8024;48.708;9.394;2022-10-26T08:10:16;11.43;;;6.17;;
15848;SDS011;8024;48.708;9.394;2022-10-26T08:12:44;8.80;;;5.83;;
15848;SDS011;8024;48.708;9.394;2022-10-26T08:15:11;7.17;;;4.97;;
15848;SDS011;8024;48.708;9.394;2022-10-26T08:17:38;10.97;;;6.20;;
15848;SDS011;8024;48.708;9.394;2022-10-26T08:20:05;5.17;;;4.67;;
15848;SDS011;8024;48.708;9.394;2022-10-26T08:22:34;7.83;;;4.90;;
15848;SDS011;8024;48.708;9.394;2022-10-26T08:25:02;6.43;;;5.07;;
15848;SDS011;8024;48.708;9.394;2022-10-26T08:27:29;8.13;;;4.83;;
15848;SDS011;8024;48.708;9.394;2022-10-26T08:29:56;4.63;;;4.20;;
15848;SDS011;8024;48.708;9.394;2022-10-26T08:32:23;5.17;;;3.87;;
15848;SDS011;8024;48.708;9.394;2022-10-26T08:34:50;9.23;;;4.90;;
15848;SDS011;8024;48.708;9.394;2022-10-26T08:37:17;9.73;;;5.83;;
15848;SDS011;8024;48.708;9.394;2022-10-26T08:39:46;6.27;;;4.80;;
15848;SDS011;8024;48.708;9.394;2022-10-26T08:42:20;5.10;;;4.50;;
15848;SDS011;8024;48.708;9.394;2022-10-26T08:44:51;7.63;;;5.63;;
15848;SDS011;8024;48.708;9.394;2022-10-26T08:47:24;8.40;;;6.60;;
15848;SDS011;8024;48.708;9.394;2022-10-26T08:49:56;7.17;;;5.17;;
15848;SDS011;8024;48.708;9.394;2022-10-26T08:52:28;7.57;;;4.47;;
15848;SDS011;8024;48.708;9.394;2022-10-26T08:55:04;6.53;;;3.93;;
15848;SDS011;8024;48.708;9.394;2022-10-26T08:57:39;4.00;;;3.50;;
15848;SDS011;8024;48.708;9.394;2022-10-26T09:00:09;6.93;;;3.20;;
15848;SDS011;8024;48.708;9.394;2022-10-26T09:02:39;4.23;;;2.93;;
15848;SDS011;8024;48.708;9.394;2022-10-26T09:05:08;3.13;;;2.50;;
15848;SDS011;8024;48.708;9.394;2022-10-26T09:07:45;4.00;;;2.63;;
15848;SDS011;8024;48.708;9.394;2022-10-26T09:13:07;6.33;;;2.80;;
15848;SDS011;8024;48.708;9.394;2022-10-26T09:15:47;4.93;;;3.03;;
15848;SDS011;8024;48.708;9.394;2022-10-26T09:18:26;7.03;;;3.30;;
15848;SDS011;8024;48.708;9.394;2022-10-26T09:21:02;3.23;;;2.73;;
15848;SDS011;8024;48.708;9.394;2022-10-26T09:23:41;4.80;;;3.07;;
15848;SDS011;8024;48.708;9.394;2022-10-26T09:26:23;6.33;;;3.03;;
15848;SDS011;8024;48.708;9.394;2022-10-26T09:29:04;8.90;;;7.23;;
15848;SDS011;8024;48.708;9.394;2022-10-26T09:31:37;10.33;;;9.27;;
15848;SDS011;8024;48.708;9.394;2022-10-26T09:34:06;14.70;;;13.30;;
15848;SDS011;8024;48.708;9.394;2022-10-26T09:36:39;7.50;;;6.40;;
15848;SDS011;8024;48.708;9.394;2022-10-26T09:39:09;6.27;;;5.63;;
15848;SDS011;8024;48.708;9.394;2022-10-26T09:41:42;6.27;;;3.27;;
15848;SDS011;8024;48.708;9.394;2022-10-26T09:44:16;2.27;;;2.07;;
15848;SDS011;8024;48.708;9.394;2022-10-26T09:46:52;5.43;;;4.20;;
15848;SDS011;8024;48.708;9.394;2022-10-26T09:49:24;7.20;;;6.50;;
15848;SDS011;8024;48.708;9.394;2022-10-26T09:51:57;3.30;;;2.57;;
15848;SDS011;8024;48.708;9.394;2022-10-26T09:54:24;3.10;;;2.80;;
15848;SDS011;8024;48.708;9.394;2022-10-26T09:56:53;5.60;;;2.90;;
15848;SDS011;8024;48.708;9.394;2022-10-26T09:59:22;5.23;;;2.67;;
15848;SDS011;8024;48.708;9.394;2022-10-26T10:01:50;6.17;;;2.83;;
15848;SDS011;8024;48.708;9.394;2022-10-26T10:04:19;5.37;;;3.37;;
15848;SDS011;8024;48.708;9.394;2022-10-26T10:06:48;3.73;;;2.50;;
15848;SDS011;8024;48.708;9.394;2022-10-26T10:09:17;3.87;;;3.23;;
15848;SDS011;8024;48.708;9.394;2022-10-26T10:11:46;3.23;;;2.90;;
15848;SDS011;8024;48.708;9.394;2022-10-26T10:14:22;3.97;;;2.63;;
15848;SDS011;8024;48.708;9.394;2022-10-26T10:16:52;4.60;;;2.43;;
15848;SDS011;8024;48.708;9.394;2022-10-26T10:19:21;6.53;;;2.97;;
15848;SDS011;8024;48.708;9.394;2022-10-26T10:21:50;4.70;;;2.97;;
15848;SDS011;8024;48.708;9.394;2022-10-26T10:24:21;5.87;;;3.40;;
15848;SDS011;8024;48.708;9.394;2022-10-26T10:27:00;5.13;;;3.33;;
15848;SDS011;8024;48.708;9.394;2022-10-26T10:29:31;4.33;;;2.40;;
15848;SDS011;8024;48.708;9.394;2022-10-26T10:32:00;7.30;;;2.67;;
15848;SDS011;8024;48.708;9.394;2022-10-26T10:34:29;4.33;;;2.10;;
15848;SDS011;8024;48.708;9.394;2022-10-26T10:36:57;6.80;;;2.27;;
15848;SDS011;8024;48.708;9.394;2022-10-26T10:39:32;4.53;;;2.37;;
15848;SDS011;8024;48.708;9.394;2022-10-26T10:42:05;5.77;;;2.77;;
15848;SDS011;8024;48.708;9.394;2022-10-26T10:44:42;3.23;;;2.10;;
15848;SDS011;8024;48.708;9.394;2022-10-26T10:47:15;4.07;;;2.60;;
15848;SDS011;8024;48.708;9.394;2022-10-26T10:49:49;5.13;;;2.60;;
15848;SDS011;8024;48.708;9.394;2022-10-26T10:52:26;6.40;;;1.93;;
15848;SDS011;8024;48.708;9.394;2022-10-26T10:54:59;2.80;;;1.90;;
15848;SDS011;8024;48.708;9.394;2022-10-26T10:57:43;6.90;;;1.90;;
15848;SDS011;8024;48.708;9.394;2022-10-26T11:00:34;5.30;;;1.60;;
15848;SDS011;8024;48.708;9.394;2022-10-26T11:06:03;4.70;;;1.37;;
15848;SDS011;8024;48.708;9.394;2022-10-26T11:08:35;4.27;;;1.47;;
15848;SDS011;8024;48.708;9.394;2022-10-26T11:11:08;4.43;;;1.73;;
15848;SDS011;8024;48.708;9.394;2022-10-26T11:13:38;2.13;;;1.33;;
15848;SDS011;8024;48.708;9.394;2022-10-26T11:16:12;2.57;;;1.73;;
15848;SDS011;8024;48.708;9.394;2022-10-26T11:18:44;3.87;;;1.60;;
15848;SDS011;8024;48.708;9.394;2022-10-26T11:21:18;2.47;;;1.13;;
15848;SDS011;8024;48.708;9.394;2022-10-26T11:23:53;2.03;;;1.50;;
15848;SDS011;8024;48.708;9.394;2022-10-26T11:26:28;5.30;;;1.80;;
15848;SDS011;8024;48.708;9.394;2022-10-26T11:29:00;2.63;;;1.23;;
15848;SDS011;8024;48.708;9.394;2022-10-26T11:31:33;3.93;;;1.37;;
15848;SDS011;8024;48.708;9.394;2022-10-26T11:34:09;2.90;;;1.50;;
15848;SDS011;8024;48.708;9.394;2022-10-26T11:36:42;5.00;;;1.63;;
15848;SDS011;8024;48.708;9.394;2022-10-26T11:39:15;3.43;;;1.20;;
15848;SDS011;8024;48.708;9.394;2022-10-26T11:41:48;1.63;;;0.87;;
15848;SDS011;8024;48.708;9.394;2022-10-26T11:44:21;4.10;;;1.60;;
15848;SDS011;8024;48.708;9.394;2022-10-26T11:46:59;6.00;;;1.17;;
15848;SDS011;8024;48.708;9.394;2022-10-26T11:49:30;2.53;;;1.43;;
15848;SDS011;8024;48.708;9.394;2022-10-26T11:52:05;7.43;;;1.40;;
15848;SDS011;8024;48.708;9.394;2022-10-26T11:54:42;6.20;;;1.40;;
15848;SDS011;8024;48.708;9.394;2022-10-26T11:57:13;4.20;;;1.60;;
15848;SDS011;8024;48.708;9.394;2022-10-26T11:59:42;5.50;;;1.87;;
15848;SDS011;8024;48.708;9.394;2022-10-26T12:02:16;2.57;;;0.83;;
15848;SDS011;8024;48.708;9.394;2022-10-26T12:04:46;6.00;;;1.50;;
15848;SDS011;8024;48.708;9.394;2022-10-26T12:07:19;3.10;;;1.20;;
15848;SDS011;8024;48.708;9.394;2022-10-26T12:09:50;3.10;;;1.20;;
15848;SDS011;8024;48.708;9.394;2022-10-26T12:12:20;3.73;;;1.33;;
15848;SDS011;8024;48.708;9.394;2022-10-26T12:14:55;5.90;;;1.60;;
15848;SDS011;8024;48.708;9.394;2022-10-26T12:17:30;3.50;;;0.93;;
15848;SDS011;8024;48.708;9.394;2022-10-26T12:20:03;3.97;;;0.90;;
15848;SDS011;8024;48.708;9.394;2022-10-26T12:22:38;2.63;;;0.90;;
15848;SDS011;8024;48.708;9.394;2022-10-26T12:25:17;4.13;;;0.83;;
15848;SDS011;8024;48.708;9.394;2022-10-26T12:27:53;3.63;;;1.37;;
15848;SDS011;8024;48.708;9.394;2022-10-26T12:30:29;3.83;;;1.10;;
15848;SDS011;8024;48.708;9.394;2022-10-26T12:32:59;4.30;;;1.27;;
15848;SDS011;8024;48.708;9.394;2022-10-26T12:35:29;6.57;;;1.33;;
15848;SDS011;8024;48.708;9.394;2022-10-26T12:37:59;5.13;;;1.43;;
15848;SDS011;8024;48.708;9.394;2022-10-26T12:40:37;5.00;;;1.20;;
15848;SDS011;8024;48.708;9.394;2022-10-26T12:52:28;4.60;;;1.40;;
15848;SDS011;8024;48.708;9.394;2022-10-26T13:07:34;3.30;;;1.30;;
15848;SDS011;8024;48.708;9.394;2022-10-26T13:10:03;2.23;;;1.30;;
15848;SDS011;8024;48.708;9.394;2022-10-26T13:12:44;4.63;;;1.43;;
15848;SDS011;8024;48.708;9.394;2022-10-26T13:15:20;2.53;;;1.33;;
15848;SDS011;8024;48.708;9.394;2022-10-26T13:17:53;3.93;;;1.43;;
15848;SDS011;8024;48.708;9.394;2022-10-26T13:20:23;5.77;;;1.37;;
15848;SDS011;8024;48.708;9.394;2022-10-26T13:22:51;7.77;;;1.43;;
15848;SDS011;8024;48.708;9.394;2022-10-26T13:25:20;5.37;;;0.93;;
15848;SDS011;8024;48.708;9.394;2022-10-26T13:28:03;2.77;;;0.90;;
15848;SDS011;8024;48.708;9.394;2022-10-26T13:30:41;7.27;;;1.27;;
15848;SDS011;8024;48.708;9.394;2022-10-26T13:36:05;2.63;;;1.07;;
15848;SDS011;8024;48.708;9.394;2022-10-26T13:38:43;3.80;;;1.60;;
15848;SDS011;8024;48.708;9.394;2022-10-26T13:41:15;2.53;;;1.10;;
15848;SDS011;8024;48.708;9.394;2022-10-26T13:43:49;4.33;;;1.40;;
15848;SDS011;8024;48.708;9.394;2022-10-26T13:46:19;6.97;;;1.50;;
15848;SDS011;8024;48.708;9.394;2022-10-26T13:48:52;3.60;;;1.10;;
15848;SDS011;8024;48.708;9.394;2022-10-26T13:51:25;2.93;;;1.03;;
15848;SDS011;8024;48.708;9.394;2022-10-26T13:54:01;5.50;;;1.20;;
15848;SDS011;8024;48.708;9.394;2022-10-26T13:56:38;4.73;;;1.33;;
15848;SDS011;8024;48.708;9.394;2022-10-26T13:59:08;5.57;;;1.30;;
15848;SDS011;8024;48.708;9.394;2022-10-26T14:01:37;4.83;;;1.30;;
15848;SDS011;8024;48.708;9.394;2022-10-26T14:04:13;5.30;;;1.43;;
15848;SDS011;8024;48.708;9.394;2022-10-26T14:06:42;4.17;;;1.07;;
15848;SDS011;8024;48.708;9.394;2022-10-26T14:09:15;5.77;;;1.30;;
15848;SDS011;8024;48.708;9.394;2022-10-26T14:11:45;4.13;;;1.10;;
15848;SDS011;8024;48.708;9.394;2022-10-26T14:14:17;3.17;;;1.20;;
15848;SDS011;8024;48.708;9.394;2022-10-26T14:16:47;3.47;;;1.20;;
15848;SDS011;8024;48.708;9.394;2022-10-26T14:19:16;4.47;;;1.10;;
15848;SDS011;8024;48.708;9.394;2022-10-26T14:21:48;4.23;;;1.20;;
15848;SDS011;8024;48.708;9.394;2022-10-26T14:24:21;2.57;;;0.60;;
15848;SDS011;8024;48.708;9.394;2022-10-26T14:26:49;2.40;;;1.03;;
15848;SDS011;8024;48.708;9.394;2022-10-26T14:29:17;4.10;;;1.10;;
15848;SDS011;8024;48.708;9.394;2022-10-26T14:31:45;3.33;;;0.73;;
15848;SDS011;8024;48.708;9.394;2022-10-26T14:34:14;2.33;;;0.93;;
15848;SDS011;8024;48.708;9.394;2022-10-26T14:36:43;2.80;;;1.03;;
15848;SDS011;8024;48.708;9.394;2022-10-26T14:39:15;4.23;;;0.90;;
15848;SDS011;8024;48.708;9.394;2022-10-26T14:41:46;4.17;;;1.10;;
15848;SDS011;8024;48.708;9.394;2022-10-26T14:44:15;6.03;;;1.50;;
15848;SDS011;8024;48.708;9.394;2022-10-26T14:46:44;4.07;;;0.80;;
15848;SDS011;8024;48.708;9.394;2022-10-26T14:49:15;4.40;;;0.97;;
15848;SDS011;8024;48.708;9.394;2022-10-26T14:51:44;3.33;;;0.93;;
15848;SDS011;8024;48.708;9.394;2022-10-26T14:54:18;4.93;;;1.50;;
15848;SDS011;8024;48.708;9.394;2022-10-26T14:56:48;2.57;;;0.77;;
15848;SDS011;8024;48.708;9.394;2022-10-26T14:59:19;5.60;;;1.13;;
15848;SDS011;8024;48.708;9.394;2022-10-26T15:01:49;4.87;;;1.20;;
15848;SDS011;8024;48.708;9.394;2022-10-26T15:04:26;4.80;;;1.47;;
15848;SDS011;8024;48.708;9.394;2022-10-26T15:07:12;3.53;;;1.00;;
15848;SDS011;8024;48.708;9.394;2022-10-26T15:09:43;3.80;;;0.93;;
15848;SDS011;8024;48.708;9.394;2022-10-26T15:12:19;5.47;;;1.13;;
15848;SDS011;8024;48.708;9.394;2022-10-26T15:14:48;5.20;;;1.23;;
15848;SDS011;8024;48.708;9.394;2022-10-26T15:17:18;3.57;;;1.00;;
15848;SDS011;8024;48.708;9.394;2022-10-26T15:19:49;6.23;;;0.90;;
15848;SDS011;8024;48.708;9.394;2022-10-26T15:22:19;1.63;;;0.83;;
15848;SDS011;8024;48.708;9.394;2022-10-26T15:24:49;6.90;;;1.23;;
15848;SDS011;8024;48.708;9.394;2022-10-26T15:27:20;5.17;;;1.10;;
15848;SDS011;8024;48.708;9.394;2022-10-26T15:29:49;5.80;;;1.27;;
15848;SDS011;8024;48.708;9.394;2022-10-26T15:32:19;3.47;;;1.10;;
15848;SDS011;8024;48.708;9.394;2022-10-26T15:35:06;3.60;;;0.97;;
15848;SDS011;8024;48.708;9.394;2022-10-26T15:37:38;3.80;;;0.97;;
15848;SDS011;8024;48.708;9.394;2022-10-26T15:40:05;3.37;;;1.03;;
15848;SDS011;8024;48.708;9.394;2022-10-26T15:42:35;2.33;;;1.47;;
15848;SDS011;8024;48.708;9.394;2022-10-26T15:45:04;4.83;;;1.50;;
15848;SDS011;8024;48.708;9.394;2022-10-26T15:47:41;5.20;;;1.13;;
15848;SDS011;8024;48.708;9.394;2022-10-26T15:50:10;3.73;;;1.17;;
15848;SDS011;8024;48.708;9.394;2022-10-26T15:52:38;3.10;;;1.00;;
15848;SDS011;8024;48.708;9.394;2022-10-26T15:55:06;5.27;;;1.20;;